sensor_id;sensor_type;location;lat;lon;timestamp;pressure;altitude;pressure_sealevel;temperature;humidity
43298;BME280;28892;55.640;37.532;2024-03-02T00:02:07;100003.06;;;5.18;59.46
43298;BME280;28892;55.640;37.532;2024-03-02T00:04:34;100004.69;;;5.30;59.08
43298;BME280;28892;55.640;37.532;2024-03-02T00:07:00;99996.28;;;5.37;58.68
43298;BME280;28892;55.640;37.532;2024-03-02T00:09:29;100001.56;;;5.25;58.86
43298;BME280;28892;55.640;37.532;2024-03-02T00:12:00;99992.47;;;5.08;58.82
43298;BME280;28892;55.640;37.532;2024-03-02T00:14:28;99994.13;;;5.09;59.37
43298;BME280;28892;55.640;37.532;2024-03-02T00:16:57;99982.16;;;5.16;59.51
43298;BME280;28892;55.640;37.532;2024-03-02T00:19:25;99990.13;;;5.26;59.22
43298;BME280;28892;55.640;37.532;2024-03-02T00:22:03;99985.41;;;5.30;59.01
43298;BME280;28892;55.640;37.532;2024-03-02T00:24:45;99984.50;;;5.20;59.05
43298;BME280;28892;55.640;37.532;2024-03-02T00:35:50;99992.63;;;5.07;59.21
43298;BME280;28892;55.640;37.532;2024-03-02T00:38:19;99993.97;;;5.01;59.09
43298;BME280;28892;55.640;37.532;2024-03-02T00:41:04;99988.06;;;5.09;59.35
43298;BME280;28892;55.640;37.532;2024-03-02T00:43:45;100000.81;;;5.13;59.12
43298;BME280;28892;55.640;37.532;2024-03-02T00:46:41;99990.94;;;5.27;58.82
43298;BME280;28892;55.640;37.532;2024-03-02T00:49:22;99993.97;;;5.22;59.05
43298;BME280;28892;55.640;37.532;2024-03-02T00:51:57;99988.25;;;5.17;58.87
43298;BME280;28892;55.640;37.532;2024-03-02T00:54:45;99992.19;;;5.23;59.01
43298;BME280;28892;55.640;37.532;2024-03-02T00:57:11;99994.53;;;5.26;59.20
43298;BME280;28892;55.640;37.532;2024-03-02T01:02:37;99993.19;;;5.31;58.70
43298;BME280;28892;55.640;37.532;2024-03-02T01:05:08;99999.84;;;5.36;58.62
43298;BME280;28892;55.640;37.532;2024-03-02T01:07:34;99995.69;;;5.33;58.50
43298;BME280;28892;55.640;37.532;2024-03-02T01:10:00;100002.53;;;5.24;58.36
43298;BME280;28892;55.640;37.532;2024-03-02T01:12:25;100000.06;;;5.23;58.52
43298;BME280;28892;55.640;37.532;2024-03-02T01:15:00;100005.66;;;5.29;58.95
43298;BME280;28892;55.640;37.532;2024-03-02T01:20:42;100007.00;;;5.24;58.70
43298;BME280;28892;55.640;37.532;2024-03-02T01:26:44;100009.34;;;5.27;58.53
43298;BME280;28892;55.640;37.532;2024-03-02T01:29:13;100002.31;;;5.27;58.40
43298;BME280;28892;55.640;37.532;2024-03-02T01:31:39;100012.09;;;5.25;58.57
43298;BME280;28892;55.640;37.532;2024-03-02T01:34:13;100009.16;;;5.18;58.62
43298;BME280;28892;55.640;37.532;2024-03-02T01:36:39;100011.66;;;5.20;58.49
43298;BME280;28892;55.640;37.532;2024-03-02T01:39:14;100007.00;;;5.24;58.67
43298;BME280;28892;55.640;37.532;2024-03-02T01:42:07;100009.88;;;5.21;58.37
43298;BME280;28892;55.640;37.532;2024-03-02T01:44:33;100007.38;;;5.19;58.56
43298;BME280;28892;55.640;37.532;2024-03-02T01:46:58;100008.34;;;5.18;58.76
43298;BME280;28892;55.640;37.532;2024-03-02T01:49:24;100012.75;;;5.17;58.83
43298;BME280;28892;55.640;37.532;2024-03-02T01:51:50;100003.19;;;5.16;58.78
43298;BME280;28892;55.640;37.532;2024-03-02T01:54:26;100005.44;;;5.21;58.83
43298;BME280;28892;55.640;37.532;2024-03-02T02:14:17;100008.59;;;5.36;58.53
43298;BME280;28892;55.640;37.532;2024-03-02T02:17:24;100012.38;;;5.43;58.45
43298;BME280;28892;55.640;37.532;2024-03-02T02:20:14;100013.09;;;5.45;58.48
43298;BME280;28892;55.640;37.532;2024-03-02T02:22:55;100011.03;;;5.49;58.04
43298;BME280;28892;55.640;37.532;2024-03-02T02:25:23;100019.16;;;5.46;57.89
43298;BME280;28892;55.640;37.532;2024-03-02T02:28:08;100016.69;;;5.44;57.76
43298;BME280;28892;55.640;37.532;2024-03-02T02:41:58;100017.81;;;5.09;58.20
43298;BME280;28892;55.640;37.532;2024-03-02T02:45:06;100014.94;;;5.12;57.97
43298;BME280;28892;55.640;37.532;2024-03-02T02:47:55;100015.38;;;5.17;58.16
43298;BME280;28892;55.640;37.532;2024-03-02T02:50:21;100020.25;;;5.22;58.26
43298;BME280;28892;55.640;37.532;2024-03-02T02:52:53;100021.16;;;5.32;58.34
43298;BME280;28892;55.640;37.532;2024-03-02T02:55:19;100025.34;;;5.35;57.78
43298;BME280;28892;55.640;37.532;2024-03-02T03:01:22;100015.53;;;5.16;57.99
43298;BME280;28892;55.640;37.532;2024-03-02T03:03:58;100019.13;;;5.15;58.03
43298;BME280;28892;55.640;37.532;2024-03-02T03:06:32;100025.69;;;5.09;57.98
43298;BME280;28892;55.640;37.532;2024-03-02T03:09:06;100021.34;;;5.20;58.18
43298;BME280;28892;55.640;37.532;2024-03-02T03:11:34;100031.03;;;5.19;57.93
43298;BME280;28892;55.640;37.532;2024-03-02T03:14:00;100028.09;;;5.12;58.07
43298;BME280;28892;55.640;37.532;2024-03-02T03:16:26;100034.16;;;5.13;58.08
43298;BME280;28892;55.640;37.532;2024-03-02T03:18:52;100024.16;;;5.07;58.32
43298;BME280;28892;55.640;37.532;2024-03-02T03:21:27;100023.53;;;5.14;58.22
43298;BME280;28892;55.640;37.532;2024-03-02T03:24:07;100030.06;;;5.20;58.15
43298;BME280;28892;55.640;37.532;2024-03-02T03:27:05;100026.53;;;5.10;58.23
43298;BME280;28892;55.640;37.532;2024-03-02T03:29:31;100023.47;;;5.05;58.58
43298;BME280;28892;55.640;37.532;2024-03-02T03:34:58;100026.66;;;5.08;58.36
43298;BME280;28892;55.640;37.532;2024-03-02T03:37:24;100021.22;;;5.00;58.77
43298;BME280;28892;55.640;37.532;2024-03-02T03:42:41;100016.91;;;4.99;58.48
43298;BME280;28892;55.640;37.532;2024-03-02T03:45:36;100017.63;;;5.01;58.84
43298;BME280;28892;55.640;37.532;2024-03-02T03:48:02;100012.03;;;4.94;58.97
43298;BME280;28892;55.640;37.532;2024-03-02T03:50:28;100015.38;;;4.96;58.64
43298;BME280;28892;55.640;37.532;2024-03-02T03:52:54;100009.03;;;4.99;59.07
43298;BME280;28892;55.640;37.532;2024-03-02T03:55:19;100019.44;;;4.89;58.97
43298;BME280;28892;55.640;37.532;2024-03-02T03:57:45;100017.19;;;4.84;58.75
43298;BME280;28892;55.640;37.532;2024-03-02T04:00:18;100011.19;;;4.94;58.92
43298;BME280;28892;55.640;37.532;2024-03-02T04:02:44;100010.94;;;4.97;58.92
43298;BME280;28892;55.640;37.532;2024-03-02T04:05:10;100007.97;;;4.90;58.90
43298;BME280;28892;55.640;37.532;2024-03-02T04:07:36;100002.84;;;4.88;58.87
43298;BME280;28892;55.640;37.532;2024-03-02T04:10:06;100000.72;;;4.82;58.89
43298;BME280;28892;55.640;37.532;2024-03-02T04:12:34;100002.38;;;4.83;58.95
43298;BME280;28892;55.640;37.532;2024-03-02T04:15:00;100012.69;;;4.75;58.91
43298;BME280;28892;55.640;37.532;2024-03-02T04:17:27;100012.69;;;4.75;59.16
43298;BME280;28892;55.640;37.532;2024-03-02T04:19:53;100016.97;;;4.76;59.14
43298;BME280;28892;55.640;37.532;2024-03-02T04:22:23;100015.63;;;4.82;59.11
43298;BME280;28892;55.640;37.532;2024-03-02T04:24:52;100011.22;;;4.82;59.16
43298;BME280;28892;55.640;37.532;2024-03-02T04:28:37;100016.75;;;4.79;59.58
43298;BME280;28892;55.640;37.532;2024-03-02T04:31:46;100011.72;;;4.76;59.34
43298;BME280;28892;55.640;37.532;2024-03-02T04:34:16;100018.19;;;4.72;59.46
43298;BME280;28892;55.640;37.532;2024-03-02T04:36:45;100006.28;;;4.68;59.35
43298;BME280;28892;55.640;37.532;2024-03-02T04:39:11;100014.44;;;4.86;59.49
43298;BME280;28892;55.640;37.532;2024-03-02T04:41:43;100012.78;;;4.85;59.38
43298;BME280;28892;55.640;37.532;2024-03-02T04:44:09;100018.38;;;4.92;59.53
43298;BME280;28892;55.640;37.532;2024-03-02T04:46:35;100016.13;;;4.87;59.34
43298;BME280;28892;55.640;37.532;2024-03-02T04:49:03;100015.84;;;4.90;59.49
43298;BME280;28892;55.640;37.532;2024-03-02T04:59:18;100024.66;;;4.68;59.56
43298;BME280;28892;55.640;37.532;2024-03-02T05:01:44;100013.66;;;4.74;59.67
43298;BME280;28892;55.640;37.532;2024-03-02T05:04:10;100013.31;;;4.67;59.49
43298;BME280;28892;55.640;37.532;2024-03-02T05:06:40;100015.34;;;4.64;59.75
43298;BME280;28892;55.640;37.532;2024-03-02T05:10:18;100026.56;;;4.66;59.63
43298;BME280;28892;55.640;37.532;2024-03-02T05:12:49;100015.38;;;4.52;59.25
43298;BME280;28892;55.640;37.532;2024-03-02T05:15:37;100015.34;;;4.64;59.80
43298;BME280;28892;55.640;37.532;2024-03-02T05:18:30;100010.78;;;4.66;59.26
43298;BME280;28892;55.640;37.532;2024-03-02T05:20:58;100015.94;;;4.67;59.39
43298;BME280;28892;55.640;37.532;2024-03-02T05:23:25;100020.94;;;4.70;59.38
43298;BME280;28892;55.640;37.532;2024-03-02T05:25:53;100026.34;;;4.69;59.22
43298;BME280;28892;55.640;37.532;2024-03-02T05:28:21;100028.13;;;4.68;59.41
43298;BME280;28892;55.640;37.532;2024-03-02T05:30:48;100027.31;;;4.68;59.43
43298;BME280;28892;55.640;37.532;2024-03-02T05:33:15;100023.50;;;4.60;59.55
43298;BME280;28892;55.640;37.532;2024-03-02T05:35:51;100022.03;;;4.68;59.59
43298;BME280;28892;55.640;37.532;2024-03-02T05:38:18;100021.53;;;4.74;59.43
43298;BME280;28892;55.640;37.532;2024-03-02T05:40:46;100020.81;;;4.72;59.40
43298;BME280;28892;55.640;37.532;2024-03-02T05:43:42;100018.56;;;4.67;59.39
43298;BME280;28892;55.640;37.532;2024-03-02T05:46:27;100029.66;;;4.71;59.42
43298;BME280;28892;55.640;37.532;2024-03-02T05:49:28;100031.59;;;4.69;58.93
43298;BME280;28892;55.640;37.532;2024-03-02T05:52:40;100030.97;;;4.77;59.46
43298;BME280;28892;55.640;37.532;2024-03-02T05:55:09;100025.63;;;4.67;59.62
43298;BME280;28892;55.640;37.532;2024-03-02T05:57:36;100022.00;;;4.79;59.36
43298;BME280;28892;55.640;37.532;2024-03-02T06:00:27;100034.31;;;4.79;59.15
43298;BME280;28892;55.640;37.532;2024-03-02T06:02:59;100031.31;;;4.83;59.28
43298;BME280;28892;55.640;37.532;2024-03-02T06:05:30;100030.59;;;4.81;58.77
43298;BME280;28892;55.640;37.532;2024-03-02T06:07:58;100028.66;;;4.83;58.72
43298;BME280;28892;55.640;37.532;2024-03-02T06:10:48;100019.34;;;4.91;58.58
43298;BME280;28892;55.640;37.532;2024-03-02T06:13:21;100026.97;;;4.94;58.99
43298;BME280;28892;55.640;37.532;2024-03-02T06:15:48;100033.63;;;4.98;58.52
43298;BME280;28892;55.640;37.532;2024-03-02T06:18:17;100030.50;;;5.04;58.04
43298;BME280;28892;55.640;37.532;2024-03-02T06:20:44;100028.97;;;5.01;58.37
43298;BME280;28892;55.640;37.532;2024-03-02T06:23:09;100031.84;;;4.98;58.57
43298;BME280;28892;55.640;37.532;2024-03-02T06:25:36;100027.88;;;5.04;58.27
43298;BME280;28892;55.640;37.532;2024-03-02T06:32:38;100033.56;;;5.09;58.22
43298;BME280;28892;55.640;37.532;2024-03-02T06:39:30;100031.25;;;5.27;57.86
43298;BME280;28892;55.640;37.532;2024-03-02T06:42:01;100025.22;;;5.37;57.75
43298;BME280;28892;55.640;37.532;2024-03-02T06:44:43;100029.44;;;5.49;57.23
43298;BME280;28892;55.640;37.532;2024-03-02T07:17:28;100029.75;;;6.08;54.83
43298;BME280;28892;55.640;37.532;2024-03-02T07:20:08;100031.22;;;6.01;55.10
43298;BME280;28892;55.640;37.532;2024-03-02T07:33:05;100032.94;;;6.43;54.28
43298;BME280;28892;55.640;37.532;2024-03-02T07:35:36;100030.47;;;6.51;54.38
43298;BME280;28892;55.640;37.532;2024-03-02T08:05:28;100012.31;;;6.88;52.51
43298;BME280;28892;55.640;37.532;2024-03-02T08:11:54;100018.97;;;6.82;52.61
43298;BME280;28892;55.640;37.532;2024-03-02T08:33:36;100013.22;;;7.46;52.17
43298;BME280;28892;55.640;37.532;2024-03-02T08:39:13;100018.81;;;8.18;51.29
43298;BME280;28892;55.640;37.532;2024-03-02T08:48:45;100019.28;;;11.63;43.48
43298;BME280;28892;55.640;37.532;2024-03-02T09:17:06;99997.28;;;12.34;41.01
43298;BME280;28892;55.640;37.532;2024-03-02T09:19:44;99992.50;;;12.29;41.23
43298;BME280;28892;55.640;37.532;2024-03-02T09:23:17;100001.75;;;12.41;41.13
43298;BME280;28892;55.640;37.532;2024-03-02T09:26:15;99992.63;;;11.96;41.19
43298;BME280;28892;55.640;37.532;2024-03-02T09:29:03;100004.03;;;11.48;41.65
43298;BME280;28892;55.640;37.532;2024-03-02T09:31:41;99983.66;;;10.90;42.37
43298;BME280;28892;55.640;37.532;2024-03-02T09:34:53;99989.66;;;10.33;43.70
43298;BME280;28892;55.640;37.532;2024-03-02T09:37:38;100001.16;;;9.99;44.52
43298;BME280;28892;55.640;37.532;2024-03-02T09:40:26;99998.47;;;9.64;45.20
43298;BME280;28892;55.640;37.532;2024-03-02T09:42:51;100000.72;;;9.50;45.64
43298;BME280;28892;55.640;37.532;2024-03-02T09:45:21;99995.44;;;9.50;46.45
43298;BME280;28892;55.640;37.532;2024-03-02T09:47:51;99992.00;;;9.32;46.64
43298;BME280;28892;55.640;37.532;2024-03-02T09:50:38;99998.69;;;9.44;46.95
43298;BME280;28892;55.640;37.532;2024-03-02T09:53:07;99998.44;;;9.56;46.34
43298;BME280;28892;55.640;37.532;2024-03-02T09:55:47;99995.72;;;9.74;46.70
43298;BME280;28892;55.640;37.532;2024-03-02T09:58:17;99989.72;;;9.98;46.20
43298;BME280;28892;55.640;37.532;2024-03-02T10:00:56;100002.38;;;10.21;45.10
43298;BME280;28892;55.640;37.532;2024-03-02T10:03:25;99987.19;;;9.97;45.24
43298;BME280;28892;55.640;37.532;2024-03-02T10:06:09;99995.81;;;9.90;46.76
43298;BME280;28892;55.640;37.532;2024-03-02T10:08:53;99993.00;;;10.35;45.18
43298;BME280;28892;55.640;37.532;2024-03-02T10:11:29;100002.91;;;10.25;45.25
43298;BME280;28892;55.640;37.532;2024-03-02T10:14:04;100005.38;;;10.18;45.01
43298;BME280;28892;55.640;37.532;2024-03-02T10:17:02;99986.25;;;10.06;44.63
43298;BME280;28892;55.640;37.532;2024-03-02T10:19:29;99999.66;;;9.70;45.55
43298;BME280;28892;55.640;37.532;2024-03-02T10:22:04;99998.00;;;9.69;45.60
43298;BME280;28892;55.640;37.532;2024-03-02T10:24:41;100002.19;;;9.45;45.92
43298;BME280;28892;55.640;37.532;2024-03-02T10:31:16;100001.56;;;8.52;48.34
43298;BME280;28892;55.640;37.532;2024-03-02T11:01:55;100018.72;;;9.02;46.26
43298;BME280;28892;55.640;37.532;2024-03-02T11:04:30;100009.88;;;8.93;46.68
43298;BME280;28892;55.640;37.532;2024-03-02T11:07:09;100018.44;;;8.87;46.74
43298;BME280;28892;55.640;37.532;2024-03-02T11:09:44;100015.78;;;8.87;46.68
43298;BME280;28892;55.640;37.532;2024-03-02T11:14:55;100004.81;;;8.82;47.06
43298;BME280;28892;55.640;37.532;2024-03-02T11:20:20;100002.66;;;9.40;46.20
43298;BME280;28892;55.640;37.532;2024-03-02T11:22:51;99994.72;;;10.10;45.47
43298;BME280;28892;55.640;37.532;2024-03-02T11:25:32;100002.09;;;9.89;45.30
43298;BME280;28892;55.640;37.532;2024-03-02T11:28:12;100000.28;;;9.63;44.73
43298;BME280;28892;55.640;37.532;2024-03-02T13:08:57;99992.38;;;7.52;45.55
43298;BME280;28892;55.640;37.532;2024-03-02T13:11:28;100001.47;;;7.30;45.94
43298;BME280;28892;55.640;37.532;2024-03-02T13:17:48;100001.03;;;7.25;46.29
43298;BME280;28892;55.640;37.532;2024-03-02T13:24:16;100003.31;;;7.10;46.86
43298;BME280;28892;55.640;37.532;2024-03-02T13:55:22;100013.28;;;7.06;46.69
43298;BME280;28892;55.640;37.532;2024-03-02T13:58:10;100009.53;;;6.99;46.86
43298;BME280;28892;55.640;37.532;2024-03-02T14:01:15;100003.97;;;7.02;46.98
43298;BME280;28892;55.640;37.532;2024-03-02T14:04:07;100014.09;;;6.87;47.45
43298;BME280;28892;55.640;37.532;2024-03-02T14:06:40;100007.16;;;6.86;46.80
43298;BME280;28892;55.640;37.532;2024-03-02T14:09:12;100014.81;;;6.69;47.25
43298;BME280;28892;55.640;37.532;2024-03-02T14:12:16;100013.38;;;6.55;47.36
43298;BME280;28892;55.640;37.532;2024-03-02T14:14:44;100010.34;;;6.50;47.48
43298;BME280;28892;55.640;37.532;2024-03-02T14:17:32;100011.84;;;6.43;47.67
43298;BME280;28892;55.640;37.532;2024-03-02T14:20:09;100011.00;;;6.33;47.66
43298;BME280;28892;55.640;37.532;2024-03-02T14:22:50;100006.69;;;6.41;48.09
43298;BME280;28892;55.640;37.532;2024-03-02T14:25:34;100012.53;;;6.35;48.07
43298;BME280;28892;55.640;37.532;2024-03-02T14:28:00;100006.00;;;6.29;48.17
43298;BME280;28892;55.640;37.532;2024-03-02T14:30:30;100009.50;;;6.40;47.93
43298;BME280;28892;55.640;37.532;2024-03-02T14:33:09;100005.59;;;6.34;47.96
43298;BME280;28892;55.640;37.532;2024-03-02T14:35:58;100007.38;;;6.34;47.99
43298;BME280;28892;55.640;37.532;2024-03-02T14:38:40;100001.81;;;6.27;48.49
43298;BME280;28892;55.640;37.532;2024-03-02T14:49:12;100011.44;;;6.07;49.19
43298;BME280;28892;55.640;37.532;2024-03-02T14:52:24;100004.41;;;6.17;49.87
43298;BME280;28892;55.640;37.532;2024-03-02T14:54:55;100009.44;;;6.30;49.17
43298;BME280;28892;55.640;37.532;2024-03-02T14:57:23;100008.16;;;6.14;49.16
43298;BME280;28892;55.640;37.532;2024-03-02T14:59:52;100016.31;;;6.11;49.26
43298;BME280;28892;55.640;37.532;2024-03-02T15:02:21;100014.81;;;6.09;49.68
43298;BME280;28892;55.640;37.532;2024-03-02T15:04:47;100021.88;;;6.08;49.78
43298;BME280;28892;55.640;37.532;2024-03-02T15:07:14;100024.88;;;6.04;49.84
43298;BME280;28892;55.640;37.532;2024-03-02T15:09:44;100025.19;;;6.10;49.68
43298;BME280;28892;55.640;37.532;2024-03-02T15:12:20;100019.78;;;6.02;49.97
43298;BME280;28892;55.640;37.532;2024-03-02T15:15:25;100019.00;;;6.21;49.83
43298;BME280;28892;55.640;37.532;2024-03-02T15:17:51;100028.66;;;6.11;49.84
43298;BME280;28892;55.640;37.532;2024-03-02T15:20:18;100022.94;;;6.06;50.03
43298;BME280;28892;55.640;37.532;2024-03-02T15:22:46;100024.06;;;6.03;49.86
43298;BME280;28892;55.640;37.532;2024-03-02T15:25:14;100026.72;;;6.03;50.05
43298;BME280;28892;55.640;37.532;2024-03-02T15:27:43;100031.75;;;5.95;50.07
43298;BME280;28892;55.640;37.532;2024-03-02T15:30:11;100036.34;;;5.93;50.13
43298;BME280;28892;55.640;37.532;2024-03-02T15:32:40;100028.25;;;5.84;50.54
43298;BME280;28892;55.640;37.532;2024-03-02T15:35:08;100034.59;;;5.82;50.40
43298;BME280;28892;55.640;37.532;2024-03-02T15:37:35;100036.34;;;5.71;50.54
43298;BME280;28892;55.640;37.532;2024-03-02T15:47:47;100039.97;;;5.49;50.57
43298;BME280;28892;55.640;37.532;2024-03-02T15:50:26;100045.94;;;5.51;50.96
43298;BME280;28892;55.640;37.532;2024-03-02T15:53:20;100046.81;;;5.40;51.05
43298;BME280;28892;55.640;37.532;2024-03-02T15:56:23;100040.94;;;5.48;50.58
43298;BME280;28892;55.640;37.532;2024-03-02T15:59:15;100045.69;;;5.33;51.00
43298;BME280;28892;55.640;37.532;2024-03-02T16:01:52;100051.25;;;5.18;50.58
43298;BME280;28892;55.640;37.532;2024-03-02T16:08:15;100050.75;;;4.92;51.20
43298;BME280;28892;55.640;37.532;2024-03-02T16:10:41;100048.16;;;4.81;51.71
43298;BME280;28892;55.640;37.532;2024-03-02T16:13:09;100044.34;;;4.85;51.71
43298;BME280;28892;55.640;37.532;2024-03-02T16:15:38;100049.97;;;4.80;51.82
43298;BME280;28892;55.640;37.532;2024-03-02T16:18:07;100043.16;;;4.78;51.70
43298;BME280;28892;55.640;37.532;2024-03-02T16:20:33;100041.00;;;4.83;51.44
43298;BME280;28892;55.640;37.532;2024-03-02T16:23:00;100042.56;;;4.74;51.77
43298;BME280;28892;55.640;37.532;2024-03-02T16:25:38;100048.06;;;4.71;51.82
43298;BME280;28892;55.640;37.532;2024-03-02T16:28:09;100045.09;;;4.64;51.92
43298;BME280;28892;55.640;37.532;2024-03-02T16:31:05;100046.06;;;4.63;51.81
43298;BME280;28892;55.640;37.532;2024-03-02T16:33:42;100049.50;;;4.64;51.86
43298;BME280;28892;55.640;37.532;2024-03-02T16:37:28;100047.84;;;4.63;51.61
43298;BME280;28892;55.640;37.532;2024-03-02T16:44:43;100050.22;;;4.66;51.79
43298;BME280;28892;55.640;37.532;2024-03-02T17:14:23;100070.66;;;3.82;53.34
43298;BME280;28892;55.640;37.532;2024-03-02T17:22:21;100067.22;;;3.82;53.47
43298;BME280;28892;55.640;37.532;2024-03-02T17:29:11;100068.41;;;3.77;53.67
43298;BME280;28892;55.640;37.532;2024-03-02T17:32:18;100066.63;;;3.78;54.17
43298;BME280;28892;55.640;37.532;2024-03-02T17:35:25;100069.50;;;3.75;54.15
43298;BME280;28892;55.640;37.532;2024-03-02T17:38:22;100072.91;;;3.64;54.00
43298;BME280;28892;55.640;37.532;2024-03-02T17:41:47;100070.53;;;3.61;54.02
43298;BME280;28892;55.640;37.532;2024-03-02T17:52:28;100073.13;;;3.49;53.68
43298;BME280;28892;55.640;37.532;2024-03-02T17:55:35;100063.72;;;3.58;53.48
43298;BME280;28892;55.640;37.532;2024-03-02T17:58:20;100072.41;;;3.47;53.63
43298;BME280;28892;55.640;37.532;2024-03-02T18:08:51;100071.50;;;3.24;53.78
43298;BME280;28892;55.640;37.532;2024-03-02T18:34:35;100088.50;;;2.94;52.80
43298;BME280;28892;55.640;37.532;2024-03-02T18:37:44;100085.56;;;2.99;52.21
43298;BME280;28892;55.640;37.532;2024-03-02T18:41:43;100082.78;;;2.89;52.40
43298;BME280;28892;55.640;37.532;2024-03-02T18:54:56;100088.13;;;2.87;51.84
43298;BME280;28892;55.640;37.532;2024-03-02T19:10:02;100081.88;;;2.77;51.43
43298;BME280;28892;55.640;37.532;2024-03-02T19:17:00;100080.09;;;2.77;51.66
43298;BME280;28892;55.640;37.532;2024-03-02T19:23:26;100087.38;;;2.61;51.76
43298;BME280;28892;55.640;37.532;2024-03-02T19:30:31;100080.78;;;2.55;52.43
43298;BME280;28892;55.640;37.532;2024-03-02T19:33:27;100077.44;;;2.53;52.41
43298;BME280;28892;55.640;37.532;2024-03-02T19:36:00;100079.94;;;2.55;52.59
43298;BME280;28892;55.640;37.532;2024-03-02T19:38:32;100080.88;;;2.54;52.56
43298;BME280;28892;55.640;37.532;2024-03-02T19:41:01;100076.81;;;2.49;52.53
43298;BME280;28892;55.640;37.532;2024-03-02T19:43:40;100084.78;;;2.48;52.79
43298;BME280;28892;55.640;37.532;2024-03-02T19:46:13;100074.19;;;2.49;53.22
43298;BME280;28892;55.640;37.532;2024-03-02T19:48:52;100073.16;;;2.52;53.37
43298;BME280;28892;55.640;37.532;2024-03-02T19:51:21;100079.97;;;2.42;53.28
43298;BME280;28892;55.640;37.532;2024-03-02T19:53:51;100075.78;;;2.39;53.54
43298;BME280;28892;55.640;37.532;2024-03-02T19:56:21;100081.25;;;2.36;53.66
43298;BME280;28892;55.640;37.532;2024-03-02T19:59:05;100077.06;;;2.33;54.13
43298;BME280;28892;55.640;37.532;2024-03-02T20:01:45;100086.19;;;2.28;54.42
43298;BME280;28892;55.640;37.532;2024-03-02T20:04:34;100085.78;;;2.21;54.40
43298;BME280;28892;55.640;37.532;2024-03-02T20:07:13;100083.97;;;2.34;54.57
43298;BME280;28892;55.640;37.532;2024-03-02T20:09:53;100097.16;;;2.33;54.49
43298;BME280;28892;55.640;37.532;2024-03-02T20:12:24;100099.34;;;2.39;54.25
43298;BME280;28892;55.640;37.532;2024-03-02T20:14:57;100098.41;;;2.27;54.64
43298;BME280;28892;55.640;37.532;2024-03-02T20:17:49;100096.75;;;2.39;54.66
43298;BME280;28892;55.640;37.532;2024-03-02T20:20:35;100096.97;;;2.36;54.88
43298;BME280;28892;55.640;37.532;2024-03-02T20:23:30;100096.66;;;2.28;54.71
43298;BME280;28892;55.640;37.532;2024-03-02T20:27:25;100095.69;;;2.29;55.01
43298;BME280;28892;55.640;37.532;2024-03-02T20:30:31;100098.31;;;2.42;55.06
43298;BME280;28892;55.640;37.532;2024-03-02T20:33:49;100095.47;;;2.45;55.00
43298;BME280;28892;55.640;37.532;2024-03-02T20:36:44;100092.34;;;2.40;55.19
43298;BME280;28892;55.640;37.532;2024-03-02T20:43:37;100105.84;;;2.33;54.74
43298;BME280;28892;55.640;37.532;2024-03-02T20:46:33;100100.41;;;2.36;55.25
43298;BME280;28892;55.640;37.532;2024-03-02T20:52:12;100101.88;;;2.41;55.15
43298;BME280;28892;55.640;37.532;2024-03-02T20:54:56;100098.53;;;2.39;55.03
43298;BME280;28892;55.640;37.532;2024-03-02T21:04:43;100106.41;;;2.26;55.34
43298;BME280;28892;55.640;37.532;2024-03-02T21:08:11;100110.59;;;2.15;55.57
43298;BME280;28892;55.640;37.532;2024-03-02T21:22:52;100110.16;;;1.95;56.14
43298;BME280;28892;55.640;37.532;2024-03-02T21:30:06;100108.59;;;1.93;56.24
43298;BME280;28892;55.640;37.532;2024-03-02T22:04:16;100131.97;;;1.43;56.52
43298;BME280;28892;55.640;37.532;2024-03-02T22:06:45;100136.66;;;1.50;56.32
43298;BME280;28892;55.640;37.532;2024-03-02T22:09:54;100130.19;;;1.43;56.02
43298;BME280;28892;55.640;37.532;2024-03-02T22:16:07;100124.03;;;1.44;56.12
43298;BME280;28892;55.640;37.532;2024-03-02T22:19:41;100130.84;;;1.47;56.52
43298;BME280;28892;55.640;37.532;2024-03-02T22:27:03;100126.28;;;0.81;57.26
43298;BME280;28892;55.640;37.532;2024-03-02T22:29:38;100127.88;;;0.69;57.83
43298;BME280;28892;55.640;37.532;2024-03-02T22:32:31;100133.63;;;0.89;57.49
43298;BME280;28892;55.640;37.532;2024-03-02T22:35:03;100131.72;;;0.78;57.62
43298;BME280;28892;55.640;37.532;2024-03-02T22:38:18;100139.59;;;0.34;57.93
43298;BME280;28892;55.640;37.532;2024-03-02T22:41:04;100124.31;;;0.70;57.14
43298;BME280;28892;55.640;37.532;2024-03-02T22:43:37;100126.56;;;0.76;57.05
43298;BME280;28892;55.640;37.532;2024-03-02T22:46:14;100126.31;;;0.52;56.59
43298;BME280;28892;55.640;37.532;2024-03-02T22:56:32;100138.63;;;0.06;57.58
43298;BME280;28892;55.640;37.532;2024-03-02T22:59:40;100127.13;;;-0.06;58.74
43298;BME280;28892;55.640;37.532;2024-03-02T23:02:26;100136.47;;;-0.02;58.27
43298;BME280;28892;55.640;37.532;2024-03-02T23:05:09;100139.94;;;0.43;58.02
43298;BME280;28892;55.640;37.532;2024-03-02T23:07:44;100134.50;;;0.75;57.04
43298;BME280;28892;55.640;37.532;2024-03-02T23:10:19;100141.06;;;0.67;56.41
43298;BME280;28892;55.640;37.532;2024-03-02T23:12:45;100132.72;;;0.75;56.74
43298;BME280;28892;55.640;37.532;2024-03-02T23:15:16;100137.31;;;0.72;56.43
43298;BME280;28892;55.640;37.532;2024-03-02T23:18:00;100139.75;;;0.60;56.75
43298;BME280;28892;55.640;37.532;2024-03-02T23:20:27;100139.59;;;0.34;57.20
43298;BME280;28892;55.640;37.532;2024-03-02T23:22:55;100141.53;;;0.60;57.31
43298;BME280;28892;55.640;37.532;2024-03-02T23:25:20;100139.47;;;0.21;57.57
43298;BME280;28892;55.640;37.532;2024-03-02T23:27:57;100138.63;;;0.21;57.81
43298;BME280;28892;55.640;37.532;2024-03-02T23:30:36;100147.94;;;0.68;56.76
43298;BME280;28892;55.640;37.532;2024-03-02T23:33:05;100148.72;;;0.56;56.78
43298;BME280;28892;55.640;37.532;2024-03-02T23:35:31;100151.78;;;0.63;56.79